Capitol Logistics 2452

Operating for GTI



KCVG
Cincinnati/Northern Kentucky International Airport
Covington, Kentucky
KELP
El Paso International Airport
El Paso, Texas

Activity Log

Date Flight Route Aircraft Duration
No Flights Yet

Route Details

Aircraft Information
Primary: Boeing 767-300BDSF
Backup: Boeing 737-800BCF
Route Data
Distance: 1145nm
Duration: 3h 06m
Recm'd Route: LOVEY6 AXC SPI BUM PER PNH J26 CME SAMMR3
Origin Wx: KCVG 191103Z COR 23005KT 2SM +TSRA BR SCT006 BKN048CB OVC065 19/18 A3000 RMK AO2 LTG DSNT ALQDS TSB03 MOV SE CIG 036 36R P0008 T01940178
Dest. Wx: KELP 191051Z 00000KT 10SM CLR 24/01 A2994 RMK AO2 SLP055 T02440006
Notes: